Time;durP1;ratioP1;P1;durP2;ratioP2;P2;SDS_P1;SDS_P2;PMS_P1;PMS_P2;Temp;Humidity;BMP_temperature;BMP_pressure;BME280_temperature;BME280_humidity;BME280_pressure;Samples;Min_cycle;Max_cycle;Signal;HPM_P1;HPM_P2
2022/01/03 00:01:30;;;;;;;;;4.75;2.75;;;;;11.84;85.02;101219.41;5034242;28;45441;-69
2022/01/03 00:03:56;;;;;;;;;1.75;1.75;;;;;11.76;84.93;101211.66;5033762;28;46516;-69
2022/01/03 00:06:21;;;;;;;;;3.75;1.25;;;;;11.79;85.09;101222.13;5035983;28;45261;-68
2022/01/03 00:08:47;;;;;;;;;8.75;2.00;;;;;11.68;85.22;101216.19;5038026;28;45374;-68
2022/01/03 00:11:18;;;;;;;;;3.75;2.00;;;;;11.70;85.60;101226.72;5037922;28;45411;-68
2022/01/03 00:13:46;;;;;;;;;3.00;2.75;;;;;11.70;86.03;101230.22;5037642;28;47001;-68
2022/01/03 00:16:12;;;;;;;;;7.50;1.25;;;;;11.62;85.49;101221.59;5037512;28;45418;-68
2022/01/03 00:18:39;;;;;;;;;5.25;2.25;;;;;11.61;85.84;101220.72;5037790;28;45325;-68
2022/01/03 00:21:18;;;;;;;;;6.75;3.00;;;;;11.31;86.00;101182.63;5037932;28;45353;-69
2022/01/03 00:23:52;;;;;;;;;0.75;0.50;;;;;11.43;86.68;101213.16;5037519;28;45700;-68
2022/01/03 00:26:29;;;;;;;;;4.75;4.00;;;;;11.42;86.19;101222.84;5037374;28;45290;-69
2022/01/03 00:29:00;;;;;;;;;2.25;1.25;;;;;11.40;86.62;101227.28;5037714;28;45306;-70
2022/01/03 00:31:46;;;;;;;;;2.00;1.25;;;;;11.38;86.54;101217.66;5041560;28;45391;-68
2022/01/03 00:34:14;;;;;;;;;2.00;2.00;;;;;11.28;87.01;101215.19;5057175;28;45541;-68
2022/01/03 00:36:40;;;;;;;;;4.75;2.00;;;;;11.25;86.96;101215.22;5057332;28;45509;-68
2022/01/03 00:39:08;;;;;;;;;6.50;1.00;;;;;11.15;86.85;101198.72;5057460;28;45360;-68
2022/01/03 00:41:39;;;;;;;;;4.00;1.50;;;;;11.18;87.50;101212.75;5057738;28;45375;-67
2022/01/03 00:44:05;;;;;;;;;5.25;2.00;;;;;11.10;87.29;101224.28;5056762;28;46309;-67
2022/01/03 00:46:32;;;;;;;;;6.25;2.25;;;;;11.11;87.48;101225.13;5057038;28;45481;-69
2022/01/03 00:49:00;;;;;;;;;2.00;1.25;;;;;11.14;87.43;101219.84;5057003;28;45521;-68
2022/01/03 00:51:25;;;;;;;;;4.50;1.00;;;;;11.14;87.69;101223.34;5057126;28;45575;-68
2022/01/03 00:53:51;;;;;;;;;2.50;0.50;;;;;11.11;87.68;101225.13;5057029;28;46092;-67
2022/01/03 00:56:35;;;;;;;;;3.50;2.25;;;;;11.00;88.45;101208.66;5057311;28;45316;-68
2022/01/03 00:59:44;;;;;;;;;4.00;2.00;;;;;11.04;88.03;101221.75;5057394;28;45456;-68
2022/01/03 01:02:11;;;;;;;;;4.50;1.75;;;;;10.83;88.34;101194.00;5064108;28;45426;-68
2022/01/03 01:04:37;;;;;;;;;1.00;1.00;;;;;11.02;88.27;101227.94;5063730;28;45783;-69
2022/01/03 01:07:06;;;;;;;;;2.25;0.00;;;;;10.93;88.48;101214.03;5063900;28;45289;-68
2022/01/03 01:09:34;;;;;;;;;6.00;1.00;;;;;10.96;88.74;101218.38;5063633;28;45376;-68
2022/01/03 01:12:00;;;;;;;;;2.00;1.00;;;;;10.99;89.40;101236.75;5063713;28;45365;-69
2022/01/03 01:14:28;;;;;;;;;2.00;2.00;;;;;11.02;88.99;101231.44;5062489;28;46405;-69
2022/01/03 01:16:54;;;;;;;;;2.80;0.00;;;;;10.96;88.90;101228.91;5063462;28;45441;-69
2022/01/03 01:19:20;;;;;;;;;3.00;1.00;;;;;10.91;89.08;101229.00;5063522;28;45394;-68
2022/01/03 01:21:50;;;;;;;;;5.75;1.50;;;;;10.91;89.45;101228.13;5063721;28;45516;-68
2022/01/03 01:24:17;;;;;;;;;7.50;2.00;;;;;10.70;89.98;101187.19;5063083;28;46309;-69
2022/01/03 01:29:28;;;;;;;;;4.75;2.00;;;;;10.90;90.08;101236.94;5063445;28;45286;-69
2022/01/03 01:31:59;;;;;;;;;2.00;0.25;;;;;10.89;90.15;101243.09;5063591;28;45307;-69
2022/01/03 01:34:28;;;;;;;;;8.00;3.00;;;;;10.85;90.37;101239.63;5063339;28;45483;-69
2022/01/03 01:36:57;;;;;;;;;2.50;1.25;;;;;10.89;90.25;101236.06;5063198;28;45202;-68
2022/01/03 01:39:25;;;;;;;;;5.25;0.00;;;;;10.65;90.37;101200.44;5063408;28;45417;-69
2022/01/03 01:41:55;;;;;;;;;3.50;2.00;;;;;10.86;90.35;101237.88;5063168;28;45303;-69
2022/01/03 01:44:22;;;;;;;;;2.75;1.25;;;;;10.90;90.41;101239.56;5063011;28;46726;-69
2022/01/03 01:46:53;;;;;;;;;3.75;1.00;;;;;10.91;90.82;101241.31;5063002;28;45442;-68
2022/01/03 01:49:21;;;;;;;;;6.00;2.00;;;;;10.96;90.24;101248.25;5062898;28;45355;-68
2022/01/03 01:51:49;;;;;;;;;5.00;2.00;;;;;10.70;90.02;101197.72;5063017;28;45490;-68
2022/01/03 01:54:17;;;;;;;;;1.00;1.00;;;;;10.98;90.41;101237.69;5063133;28;46525;-69
2022/01/03 01:56:59;;;;;;;;;4.00;2.50;;;;;10.97;90.48;101238.56;5062658;28;45522;-69
2022/01/03 01:59:31;;;;;;;;;1.25;1.25;;;;;10.95;90.73;101246.50;5063103;28;45337;-69
2022/01/03 02:02:06;;;;;;;;;6.50;2.00;;;;;10.97;90.49;101234.16;5063020;28;45817;-69
2022/01/03 02:04:41;;;;;;;;;3.75;2.00;;;;;11.05;90.95;101248.97;5062731;28;46350;-69
2022/01/03 02:07:47;;;;;;;;;7.25;2.00;;;;;11.09;89.92;101234.84;5062678;28;45706;-69
2022/01/03 02:10:15;;;;;;;;;8.00;1.00;;;;;11.18;89.72;101244.38;5000740;28;45382;-69
2022/01/03 02:12:49;;;;;;;;;3.50;1.75;;;;;11.17;89.61;101232.06;4996573;28;45408;-69
2022/01/03 02:15:17;;;;;;;;;10.00;2.25;;;;;11.21;89.74;101239.94;4997387;28;46639;-69
2022/01/03 02:17:45;;;;;;;;;6.25;2.00;;;;;11.12;89.86;101219.88;4997473;28;45484;-69
2022/01/03 02:20:11;;;;;;;;;6.75;3.00;;;;;11.27;89.46;101246.81;4997242;28;45440;-68
2022/01/03 02:22:39;;;;;;;;;9.00;3.75;;;;;11.20;89.50;101225.00;4997401;28;45649;-69
2022/01/03 02:25:12;;;;;;;;;5.75;2.75;;;;;11.27;89.68;101241.56;4996875;28;46232;-68
2022/01/03 02:27:38;;;;;;;;;7.75;2.25;;;;;11.26;89.79;101245.13;4997478;28;45448;-69
2022/01/03 02:30:16;;;;;;;;;5.50;2.50;;;;;11.26;89.37;101235.44;4997326;28;45344;-70
2022/01/03 02:32:43;;;;;;;;;5.00;1.00;;;;;11.32;89.80;101242.34;4997845;28;45515;-69
2022/01/03 02:35:09;;;;;;;;;2.75;2.25;;;;;11.33;89.15;101236.19;4997110;28;46394;-69
2022/01/03 02:37:36;;;;;;;;;9.50;2.00;;;;;11.29;89.17;101218.69;4997071;28;45446;-69
2022/01/03 02:40:02;;;;;;;;;7.50;3.00;;;;;11.39;89.44;101229.94;4997089;28;45472;-69
2022/01/03 02:42:28;;;;;;;;;8.00;1.25;;;;;11.39;89.41;101222.03;4997410;28;45432;-69
2022/01/03 02:45:05;;;;;;;;;3.25;3.00;;;;;11.41;88.89;101228.13;4997180;28;45447;-69
2022/01/03 02:47:31;;;;;;;;;7.00;2.75;;;;;11.43;89.28;101227.22;5043293;28;45447;-68
2022/01/03 02:49:56;;;;;;;;;6.50;3.00;;;;;11.48;89.10;101224.50;5059041;28;45302;-69
2022/01/03 02:52:22;;;;;;;;;5.00;3.25;;;;;11.51;88.21;101221.78;5059294;28;45230;-68
2022/01/03 02:54:49;;;;;;;;;7.75;1.25;;;;;11.47;88.36;101217.47;5058904;28;46431;-69
2022/01/03 02:57:14;;;;;;;;;5.00;2.00;;;;;11.41;88.58;101207.03;5058992;28;45376;-69
2022/01/03 02:59:39;;;;;;;;;8.75;2.75;;;;;11.47;88.26;101222.75;5059224;28;45538;-68
2022/01/03 03:02:06;;;;;;;;;6.50;2.25;;;;;11.46;89.00;101219.25;5059275;28;45433;-67
2022/01/03 03:04:53;;;;;;;;;8.50;2.00;;;;;11.46;88.51;101221.88;5059011;28;46580;-67
2022/01/03 03:07:24;;;;;;;;;6.25;2.50;;;;;11.40;88.06;101224.66;5058172;28;45402;-69
2022/01/03 03:09:49;;;;;;;;;6.50;3.25;;;;;11.27;88.14;101200.28;5058845;28;45337;-68
2022/01/03 03:12:15;;;;;;;;;4.50;1.50;;;;;11.39;88.17;101217.63;5059062;28;45428;-68
2022/01/03 03:14:41;;;;;;;;;4.75;1.00;;;;;11.38;87.82;101230.84;5058533;28;45533;-68
2022/01/03 03:17:06;;;;;;;;;1.50;1.50;;;;;11.29;87.49;101221.31;5058589;28;45491;-68
2022/01/03 03:19:32;;;;;;;;;3.00;0.75;;;;;11.25;87.78;101219.63;5058808;28;45433;-68
2022/01/03 03:21:57;;;;;;;;;4.25;1.25;;;;;11.24;86.82;101215.25;5058395;28;45470;-68
2022/01/03 03:24:23;;;;;;;;;5.00;0.00;;;;;11.25;87.16;101217.00;5057877;28;45650;-68
2022/01/03 03:26:49;;;;;;;;;3.25;1.00;;;;;11.19;86.77;101225.88;5058385;28;45424;-68
2022/01/03 03:29:14;;;;;;;;;2.75;1.00;;;;;11.14;87.55;101220.69;5058409;28;45395;-68
2022/01/03 03:31:40;;;;;;;;;0.75;0.00;;;;;11.11;86.59;101220.75;5058684;28;45464;-68
2022/01/03 03:34:05;;;;;;;;;2.00;1.00;;;;;10.89;86.91;101178.09;5058067;28;45365;-68
2022/01/03 03:36:31;;;;;;;;;2.00;1.00;;;;;11.07;87.30;101200.63;5058135;28;45367;-68
2022/01/03 03:38:56;;;;;;;;;2.50;0.50;;;;;10.90;86.99;101186.88;5058313;28;45487;-68
2022/01/03 03:41:22;;;;;;;;;5.75;2.50;;;;;10.94;87.22;101204.38;5053664;28;45222;-68
2022/01/03 03:43:47;;;;;;;;;2.75;1.00;;;;;10.93;87.63;101205.25;5037111;28;46634;-68
2022/01/03 03:46:13;;;;;;;;;2.50;0.00;;;;;10.82;87.98;101189.66;5037856;28;45422;-68
2022/01/03 03:48:39;;;;;;;;;5.25;2.00;;;;;10.83;87.83;101188.72;5038158;28;45402;-68
2022/01/03 03:51:05;;;;;;;;;4.75;0.00;;;;;10.84;87.77;101184.34;5037986;28;45520;-68
2022/01/03 03:53:30;;;;;;;;;1.00;1.00;;;;;10.82;87.54;101180.84;5037562;28;46473;-68
2022/01/03 03:55:56;;;;;;;;;1.00;0.25;;;;;10.74;87.20;101165.19;5037804;28;45271;-68
2022/01/03 03:58:21;;;;;;;;;1.00;1.00;;;;;10.80;87.72;101175.59;5037912;28;45691;-68
2022/01/03 04:00:47;;;;;;;;;4.75;1.00;;;;;10.72;88.06;101164.34;5038057;28;45399;-68
2022/01/03 04:03:12;;;;;;;;;2.00;0.75;;;;;10.77;87.89;101166.00;5037438;28;47400;-68
2022/01/03 04:05:38;;;;;;;;;4.00;1.00;;;;;10.84;87.40;101177.31;5037672;28;45472;-68
2022/01/03 04:08:04;;;;;;;;;1.50;1.00;;;;;10.77;87.82;101146.69;5037562;28;45338;-68
2022/01/03 04:10:29;;;;;;;;;2.00;1.00;;;;;10.70;88.13;101138.00;5037900;28;45419;-68
2022/01/03 04:12:54;;;;;;;;;1.50;1.00;;;;;10.91;88.30;101163.13;5037495;28;46205;-68
2022/01/03 04:15:20;;;;;;;;;0.75;0.50;;;;;10.97;88.75;101151.63;5037712;28;45488;-68
2022/01/03 04:17:45;;;;;;;;;4.00;1.00;;;;;10.96;88.72;101145.50;5037666;28;45749;-68
2022/01/03 04:20:13;;;;;;;;;3.25;1.00;;;;;11.00;88.99;101150.69;5037936;28;45495;-68
2022/01/03 04:22:39;;;;;;;;;4.75;1.25;;;;;11.01;89.23;101145.41;5037570;28;45537;-68
2022/01/03 04:25:05;;;;;;;;;1.50;0.75;;;;;11.03;89.38;101140.97;5037578;28;45211;-68
2022/01/03 04:27:30;;;;;;;;;1.50;1.00;;;;;11.12;89.36;101146.09;5037896;28;45277;-68
2022/01/03 04:29:55;;;;;;;;;6.25;3.25;;;;;11.12;89.27;101137.28;5037878;28;45331;-68
2022/01/03 04:32:21;;;;;;;;;4.75;1.00;;;;;11.11;89.16;101130.25;5037479;28;45427;-68
2022/01/03 04:34:46;;;;;;;;;6.00;3.50;;;;;11.08;89.53;101123.31;5036629;28;45386;-68
2022/01/03 04:37:14;;;;;;;;;4.75;2.00;;;;;11.18;89.36;101131.03;5037660;28;45461;-68
2022/01/03 04:39:40;;;;;;;;;2.00;2.00;;;;;11.18;89.45;101126.63;5037652;28;45322;-68
2022/01/03 04:42:06;;;;;;;;;5.50;3.00;;;;;11.22;88.90;101123.03;5037319;28;45549;-68
2022/01/03 04:44:32;;;;;;;;;3.00;2.25;;;;;11.23;88.73;101131.81;5037350;28;45421;-68
2022/01/03 04:46:57;;;;;;;;;3.00;2.00;;;;;11.14;89.19;101117.91;5037523;28;45318;-68
2022/01/03 04:49:22;;;;;;;;;1.50;1.50;;;;;11.25;88.82;101130.00;5037583;28;45395;-68
2022/01/03 04:51:48;;;;;;;;;3.00;2.00;;;;;11.15;88.38;101122.28;5037226;28;46145;-68
2022/01/03 04:54:13;;;;;;;;;7.00;1.00;;;;;11.22;88.58;101123.03;5037126;28;45453;-68
2022/01/03 04:56:39;;;;;;;;;5.75;1.50;;;;;11.22;88.45;101112.47;5037515;28;45272;-68
2022/01/03 04:59:04;;;;;;;;;2.00;2.00;;;;;11.26;88.35;101121.22;5037460;28;45233;-68
2022/01/03 05:01:30;;;;;;;;;4.25;1.25;;;;;11.24;88.02;101125.63;5037143;28;46280;-69
2022/01/03 05:03:55;;;;;;;;;3.50;0.00;;;;;11.23;87.67;101130.03;5037233;28;45211;-69
2022/01/03 05:06:21;;;;;;;;;3.75;2.00;;;;;10.96;87.68;101084.00;5037259;28;45256;-69
2022/01/03 05:08:47;;;;;;;;;3.25;1.00;;;;;11.17;87.72;101110.84;5037401;28;45573;-68
2022/01/03 05:11:12;;;;;;;;;2.00;1.25;;;;;11.22;87.58;101114.25;5036854;28;46391;-68
2022/01/03 05:13:38;;;;;;;;;2.75;1.00;;;;;11.32;86.90;101113.19;5037032;28;45408;-68
2022/01/03 05:16:04;;;;;;;;;2.75;1.75;;;;;11.29;86.59;101119.38;5036038;28;45350;-68
2022/01/03 05:18:29;;;;;;;;;8.50;0.50;;;;;11.22;86.36;101111.63;5037202;28;45321;-68
2022/01/03 05:20:56;;;;;;;;;3.00;1.75;;;;;11.26;87.04;101118.59;5037108;28;46719;-68
2022/01/03 05:23:21;;;;;;;;;6.50;0.75;;;;;11.31;86.05;101132.53;5036745;28;45386;-68
2022/01/03 05:25:47;;;;;;;;;4.25;1.00;;;;;11.21;86.64;101113.41;5036972;28;45412;-69
2022/01/03 05:28:13;;;;;;;;;1.00;1.00;;;;;11.26;86.58;101119.44;5037187;28;45340;-69
2022/01/03 05:30:39;;;;;;;;;1.75;0.00;;;;;11.20;85.89;101092.34;5036605;28;45571;-68
2022/01/03 05:33:04;;;;;;;;;2.50;1.00;;;;;11.05;86.20;101093.50;5036338;28;45386;-69
2022/01/03 05:35:30;;;;;;;;;2.25;2.00;;;;;11.09;86.95;101109.22;5037058;28;45447;-68
2022/01/03 05:37:56;;;;;;;;;6.75;2.75;;;;;11.07;86.45;101115.44;5036543;28;45336;-67
2022/01/03 05:40:23;;;;;;;;;3.75;1.50;;;;;11.05;87.07;101115.47;5036733;28;46014;-68
2022/01/03 05:42:49;;;;;;;;;7.25;2.75;;;;;11.03;87.39;101119.03;5036202;28;45490;-70
2022/01/03 05:45:14;;;;;;;;;3.00;1.00;;;;;10.98;87.24;101119.97;5036863;28;45295;-68
2022/01/03 05:47:42;;;;;;;;;5.75;1.75;;;;;11.00;87.01;101117.31;5040301;28;45262;-68
2022/01/03 05:50:08;;;;;;;;;3.25;1.00;;;;;11.00;87.31;101119.94;5039489;28;46441;-68
2022/01/03 05:52:33;;;;;;;;;4.25;1.00;;;;;11.01;87.38;101118.16;5039862;28;45156;-71
2022/01/03 05:54:59;;;;;;;;;7.50;1.00;;;;;10.95;86.94;101106.84;5039864;28;45333;-71
2022/01/03 05:57:24;;;;;;;;;2.00;1.00;;;;;10.92;87.55;101108.66;5040261;28;45413;-70
2022/01/03 05:59:50;;;;;;;;;3.25;1.00;;;;;10.88;87.50;101107.00;5039880;28;45291;-71
2022/01/03 06:02:15;;;;;;;;;2.50;1.50;;;;;10.91;87.85;101115.72;5039503;28;45312;-70
2022/01/03 06:07:19;;;;;;;;;2.00;2.00;;;;;10.94;87.72;101112.16;5040147;28;45266;-71
2022/01/03 06:09:45;;;;;;;;;6.00;4.50;;;;;10.93;87.98;101102.50;5039496;28;45580;-70
2022/01/03 06:12:10;;;;;;;;;3.75;3.25;;;;;10.90;87.69;101090.25;5039595;28;45417;-70
2022/01/03 06:14:37;;;;;;;;;5.25;2.50;;;;;10.97;87.55;101091.88;5039781;28;45387;-71
2022/01/03 06:17:05;;;;;;;;;7.00;2.25;;;;;10.95;87.39;101096.31;5039848;28;45298;-68
2022/01/03 06:19:32;;;;;;;;;0.75;0.75;;;;;10.96;87.63;101094.53;5039384;28;45732;-68
2022/01/03 06:21:57;;;;;;;;;5.75;1.75;;;;;10.95;87.58;101092.81;5039575;28;45323;-73
2022/01/03 06:24:23;;;;;;;;;4.00;1.00;;;;;10.92;87.86;101085.84;5039540;28;45274;-70
2022/01/03 06:26:49;;;;;;;;;3.50;1.00;;;;;10.89;88.04;101077.09;5039715;28;45424;-69
2022/01/03 06:29:15;;;;;;;;;3.75;2.00;;;;;10.95;88.24;101088.41;5039400;28;46200;-69
2022/01/03 06:31:41;;;;;;;;;3.25;1.00;;;;;10.83;88.47;101067.56;5039204;28;45444;-71
2022/01/03 06:34:07;;;;;;;;;4.50;1.25;;;;;10.87;88.25;101074.50;5039354;28;45360;-69
2022/01/03 06:36:32;;;;;;;;;11.00;1.00;;;;;10.95;88.37;101085.78;5039456;28;45296;-67
2022/01/03 06:38:58;;;;;;;;;3.25;2.00;;;;;11.01;88.21;101083.91;5038969;28;45582;-71
2022/01/03 06:41:25;;;;;;;;;4.00;3.50;;;;;11.04;88.21;101086.50;5038949;28;45341;-68
2022/01/03 06:43:51;;;;;;;;;4.75;2.00;;;;;11.06;88.03;101082.06;5039231;28;45235;-70
2022/01/03 06:46:17;;;;;;;;;5.75;3.00;;;;;11.10;87.71;101087.25;5039289;28;45513;-70
2022/01/03 06:48:46;;;;;;;;;5.00;3.50;;;;;11.02;87.94;101081.25;5039194;28;45460;-69
2022/01/03 06:51:12;;;;;;;;;4.50;4.50;;;;;11.05;88.16;101081.22;5038723;28;45328;-70
2022/01/03 06:53:38;;;;;;;;;27.50;18.00;;;;;11.10;88.14;101081.97;5038916;28;45332;-70
2022/01/03 06:56:04;;;;;;;;;16.67;15.00;;;;;11.09;88.30;101089.91;5039512;28;45258;-71
2022/01/03 06:58:30;;;;;;;;;7.00;2.00;;;;;10.97;88.23;101067.31;5038196;28;46463;-69
2022/01/03 07:00:55;;;;;;;;;2.50;1.00;;;;;10.96;88.24;101066.44;5038821;28;45444;-69
2022/01/03 07:03:21;;;;;;;;;7.75;1.00;;;;;10.82;88.57;101043.88;5038864;28;45438;-69
2022/01/03 07:05:46;;;;;;;;;4.25;4.00;;;;;10.97;88.50;101069.94;5039143;28;45358;-69
2022/01/03 07:08:11;;;;;;;;;4.25;2.75;;;;;10.84;88.67;101045.59;5038694;28;46468;-69
2022/01/03 07:10:37;;;;;;;;;5.00;3.75;;;;;11.01;88.69;101062.81;5038671;28;45439;-69
2022/01/03 07:13:03;;;;;;;;;3.00;0.50;;;;;10.90;88.09;101032.28;5038993;28;45370;-69
2022/01/03 07:20:56;;;;;;;;;1.75;1.75;;;;;11.12;88.65;101074.03;5038370;28;45226;-71
2022/01/03 07:23:22;;;;;;;;;4.75;2.00;;;;;11.12;88.89;101058.22;5046215;28;45267;-70
2022/01/03 07:25:48;;;;;;;;;11.00;5.25;;;;;11.04;89.28;101044.34;5058212;28;45349;-70
2022/01/03 07:28:14;;;;;;;;;2.00;2.00;;;;;11.10;89.35;101054.75;5058150;28;46664;-69
2022/01/03 07:30:40;;;;;;;;;9.00;1.00;;;;;11.09;89.49;101053.88;5058425;28;45313;-70
2022/01/03 07:33:05;;;;;;;;;5.00;2.00;;;;;11.03;89.60;101046.09;5058175;28;45591;-71
2022/01/03 07:35:31;;;;;;;;;1.75;1.00;;;;;11.09;89.99;101053.00;5058414;28;45446;-70
2022/01/03 07:37:58;;;;;;;;;5.50;1.75;;;;;11.14;89.53;101053.81;5057827;28;47306;-70
2022/01/03 07:40:25;;;;;;;;;15.25;10.00;;;;;11.19;89.70;101059.84;5057785;28;45308;-69
2022/01/03 07:42:51;;;;;;;;;19.33;15.00;;;;;11.14;89.63;101059.94;5058037;28;45230;-70
2022/01/03 07:45:17;;;;;;;;;6.00;3.50;;;;;11.09;89.46;101040.69;5057926;28;45412;-71
2022/01/03 07:47:43;;;;;;;;;5.50;1.00;;;;;11.11;89.66;101059.13;5057860;28;46471;-71
2022/01/03 07:50:10;;;;;;;;;1.75;1.00;;;;;11.14;89.43;101053.81;5058421;28;45328;-71
2022/01/03 07:52:36;;;;;;;;;1.00;1.00;;;;;11.20;89.54;101063.38;5058119;28;45287;-70
2022/01/03 07:55:02;;;;;;;;;2.25;1.75;;;;;10.97;89.67;101028.63;5057586;28;47033;-70
2022/01/03 07:57:27;;;;;;;;;4.00;1.00;;;;;11.14;89.61;101059.06;5057621;28;45596;-70
2022/01/03 07:59:52;;;;;;;;;2.25;1.50;;;;;11.13;89.99;101055.56;5058143;28;45327;-70
2022/01/03 08:02:18;;;;;;;;;2.00;1.00;;;;;11.09;89.94;101051.25;5057617;28;45321;-70
2022/01/03 08:04:45;;;;;;;;;3.25;0.00;;;;;11.08;89.94;101057.44;5057611;28;45519;-70
2022/01/03 08:07:10;;;;;;;;;3.00;1.00;;;;;11.00;89.90;101042.66;5057052;28;46643;-70
2022/01/03 08:09:35;;;;;;;;;4.00;2.00;;;;;11.11;90.18;101053.84;5056560;28;45466;-70
2022/01/03 08:12:01;;;;;;;;;4.00;3.00;;;;;11.13;89.86;101059.97;5057984;28;45422;-70
2022/01/03 08:14:26;;;;;;;;;1.50;1.00;;;;;11.10;90.14;101047.72;5057778;28;45529;-70
2022/01/03 08:16:52;;;;;;;;;5.50;3.75;;;;;11.11;90.38;101056.47;5056982;28;46379;-70
2022/01/03 08:19:17;;;;;;;;;4.50;2.50;;;;;11.11;90.43;101054.72;5058044;28;45305;-70
2022/01/03 08:21:42;;;;;;;;;4.00;2.00;;;;;11.07;90.39;101042.50;5057743;28;45385;-71
2022/01/03 08:24:08;;;;;;;;;9.75;1.75;;;;;11.10;90.47;101058.25;5057378;28;45550;-70
2022/01/03 08:26:35;;;;;;;;;4.50;2.00;;;;;10.78;90.71;101003.56;5057400;28;46361;-70
2022/01/03 08:29:00;;;;;;;;;4.00;2.00;;;;;11.06;90.68;101055.72;5057202;28;45354;-70
2022/01/03 08:31:26;;;;;;;;;3.25;3.00;;;;;11.01;90.28;101040.00;5055372;28;45689;-71
2022/01/03 08:33:53;;;;;;;;;5.75;3.00;;;;;11.05;90.50;101052.22;5046203;28;45455;-73
2022/01/03 08:36:19;;;;;;;;;7.75;3.00;;;;;11.08;90.47;101059.19;5045894;28;45545;-70
2022/01/03 08:38:44;;;;;;;;;6.00;2.00;;;;;11.13;90.56;101063.47;5056895;28;45409;-71
2022/01/03 08:41:09;;;;;;;;;5.00;2.00;;;;;11.17;90.44;101071.31;5056685;28;45436;-72
2022/01/03 08:43:35;;;;;;;;;6.75;3.50;;;;;11.19;90.04;101067.75;5046325;28;45531;-72
2022/01/03 08:46:00;;;;;;;;;11.75;3.00;;;;;11.16;89.38;101054.63;5044293;28;45327;-73
2022/01/03 08:48:27;;;;;;;;;6.25;3.00;;;;;11.14;89.50;101043.25;5056749;28;45458;-74
2022/01/03 08:50:53;;;;;;;;;3.25;2.00;;;;;11.24;89.10;101065.91;5049248;28;45558;-75
2022/01/03 08:53:25;;;;;;;;;4.00;1.50;;;;;11.24;89.36;101071.16;5037126;28;45371;-75
2022/01/03 08:55:50;;;;;;;;;6.00;4.25;;;;;11.21;89.25;101046.63;5035389;28;45406;-73
2022/01/03 08:58:16;;;;;;;;;5.75;3.00;;;;;11.30;89.35;101063.13;5036928;28;45415;-73
2022/01/03 09:00:42;;;;;;;;;6.25;2.00;;;;;11.25;89.14;101053.56;5036880;28;45393;-72
2022/01/03 09:03:07;;;;;;;;;3.00;2.75;;;;;11.38;88.98;101065.59;5037103;28;45366;-72
2022/01/03 09:05:32;;;;;;;;;4.00;3.00;;;;;11.41;88.67;101067.31;5036628;28;46289;-73
2022/01/03 09:07:58;;;;;;;;;3.75;2.00;;;;;11.45;88.74;101080.38;5036882;28;45350;-73
2022/01/03 09:10:24;;;;;;;;;5.25;1.75;;;;;11.46;88.41;101063.66;5040108;28;45402;-74
2022/01/03 09:12:49;;;;;;;;;2.25;2.25;;;;;11.41;88.10;101054.97;5046775;28;45389;-75
2022/01/03 09:15:14;;;;;;;;;4.00;2.00;;;;;11.50;88.83;101065.34;5056793;28;46396;-72
2022/01/03 09:17:40;;;;;;;;;4.75;2.75;;;;;11.54;88.10;101067.91;5039387;28;45295;-70
2022/01/03 09:20:06;;;;;;;;;3.50;2.25;;;;;11.52;87.54;101045.97;5036711;28;45431;-73
2022/01/03 09:22:37;;;;;;;;;4.75;3.00;;;;;11.36;87.71;101013.81;5039688;28;45502;-70
2022/01/03 09:30:13;;;;;;;;;5.50;2.00;;;;;11.64;87.71;101051.84;5056250;28;45298;-71
2022/01/03 09:32:39;;;;;;;;;6.75;3.75;;;;;11.66;87.67;101041.25;5059310;28;46023;-73
2022/01/03 09:35:06;;;;;;;;;6.25;3.50;;;;;11.71;87.43;101047.31;5048168;28;45376;-73
2022/01/03 09:37:36;;;;;;;;;1.75;1.00;;;;;11.74;87.36;101043.75;5060493;28;45397;-71
2022/01/03 09:40:04;;;;;;;;;5.25;2.25;;;;;11.74;86.49;101039.31;5059771;28;45384;-73
2022/01/03 09:42:31;;;;;;;;;10.00;4.25;;;;;11.72;87.02;101054.31;5059600;28;45414;-73
2022/01/03 09:45:02;;;;;;;;;3.50;3.00;;;;;11.74;86.53;101043.75;5059498;28;45578;-73
2022/01/03 09:47:30;;;;;;;;;4.75;4.00;;;;;11.67;87.43;101049.13;5059953;28;45390;-73
2022/01/03 09:49:57;;;;;;;;;4.00;3.50;;;;;11.70;87.71;101048.19;5056552;28;45499;-73
2022/01/03 09:52:25;;;;;;;;;10.75;2.50;;;;;11.70;87.84;101052.63;5047359;28;45262;-74
2022/01/03 09:54:51;;;;;;;;;16.33;15.67;;;;;11.57;88.34;101044.09;5059259;28;46684;-72
2022/01/03 09:57:20;;;;;;;;;5.75;3.50;;;;;11.58;88.66;101038.78;5047517;28;45451;-72
2022/01/03 09:59:46;;;;;;;;;6.50;4.00;;;;;11.57;89.49;101052.03;5035998;28;45445;-71
2022/01/03 10:02:14;;;;;;;;;4.25;3.25;;;;;11.60;89.77;101046.69;5041839;28;45488;-70
2022/01/03 10:04:40;;;;;;;;;15.50;12.25;;;;;11.59;89.94;101042.28;5044829;28;46225;-70
2022/01/03 10:07:09;;;;;;;;;9.25;6.00;;;;;11.56;90.13;101043.25;5040529;28;45383;-67
2022/01/03 10:09:37;;;;;;;;;7.00;4.25;;;;;11.43;90.44;101034.75;5046326;28;45532;-68
2022/01/03 10:12:03;;;;;;;;;2.50;2.50;;;;;11.39;90.61;101029.56;5044527;28;45518;-70
2022/01/03 10:14:28;;;;;;;;;7.50;2.75;;;;;11.39;90.84;101030.44;5037016;28;47325;-73
2022/01/03 10:16:53;;;;;;;;;8.75;6.00;;;;;11.38;90.94;101027.81;5042636;28;45437;-72
2022/01/03 10:19:19;;;;;;;;;7.50;7.25;;;;;11.36;91.06;101030.50;5040662;28;45521;-68
2022/01/03 10:21:48;;;;;;;;;8.75;8.00;;;;;11.36;91.78;101038.41;5048387;28;45448;-68
2022/01/03 10:24:15;;;;;;;;;4.00;4.00;;;;;11.37;91.60;101018.16;5040889;28;45805;-69
2022/01/03 10:26:42;;;;;;;;;1.25;0.75;;;;;11.37;91.41;101013.78;5043693;28;45560;-70
2022/01/03 10:29:22;;;;;;;;;2.00;2.00;;;;;11.39;91.79;101011.97;5042921;28;45509;-69
2022/01/03 10:31:51;;;;;;;;;3.00;2.00;;;;;11.42;92.24;101018.94;5035970;28;45809;-74
2022/01/03 10:34:19;;;;;;;;;5.00;2.00;;;;;11.42;92.13;100998.72;5023716;28;45574;-70
2022/01/03 10:36:47;;;;;;;;;8.00;6.00;;;;;11.47;92.72;101003.88;4998297;28;45423;-67
2022/01/03 10:39:27;;;;;;;;;3.00;3.00;;;;;11.53;91.97;100998.50;4999039;28;45540;-67
2022/01/03 10:42:17;;;;;;;;;14.50;4.25;;;;;11.55;92.14;100994.03;4999303;28;45487;-67
2022/01/03 10:44:44;;;;;;;;;12.50;8.00;;;;;11.61;92.74;100985.13;4998995;28;46568;-70
2022/01/03 10:47:14;;;;;;;;;8.00;3.75;;;;;11.60;92.12;100986.00;4998979;28;45335;-70
2022/01/03 10:49:41;;;;;;;;;4.75;4.00;;;;;11.58;92.79;100980.78;4999453;28;45358;-67
2022/01/03 10:52:12;;;;;;;;;6.00;5.00;;;;;11.54;92.85;100975.63;4999376;28;45221;-70
2022/01/03 10:54:37;;;;;;;;;5.75;3.75;;;;;11.66;92.69;100980.59;4998652;28;46213;-67
2022/01/03 10:57:03;;;;;;;;;4.75;3.50;;;;;11.65;92.06;100960.41;4998851;28;45233;-69
2022/01/03 10:59:31;;;;;;;;;9.25;5.00;;;;;11.62;91.69;100947.31;4998957;28;45156;-69
2022/01/03 11:01:59;;;;;;;;;4.00;2.75;;;;;11.70;92.13;100965.56;4998294;28;45513;-67
2022/01/03 11:04:52;;;;;;;;;7.00;4.00;;;;;11.57;92.17;100946.53;4998578;28;46618;-69
2022/01/03 11:13:02;;;;;;;;;4.75;2.25;;;;;11.64;92.26;100964.81;4999156;28;45381;-68
2022/01/03 11:15:27;;;;;;;;;6.00;3.00;;;;;11.61;93.17;100956.09;4998512;28;46618;-67
2022/01/03 11:18:08;;;;;;;;;7.50;4.00;;;;;11.54;92.99;100951.88;4998496;28;45221;-70
2022/01/03 11:20:33;;;;;;;;;8.00;7.00;;;;;11.59;94.89;100968.44;4998712;28;45328;-71
2022/01/03 11:23:00;;;;;;;;;6.50;2.25;;;;;11.62;93.88;100971.03;4998370;28;45677;-70
2022/01/03 11:25:30;;;;;;;;;4.50;4.00;;;;;11.55;95.03;100956.25;4998218;28;46554;-71
2022/01/03 11:27:56;;;;;;;;;6.00;6.00;;;;;11.50;94.65;100954.59;4998224;28;45366;-71
2022/01/03 11:30:22;;;;;;;;;6.00;5.00;;;;;11.32;95.02;100918.97;4998455;28;45265;-71
2022/01/03 11:32:49;;;;;;;;;5.25;4.75;;;;;11.58;94.63;100964.94;4998427;28;45407;-71
2022/01/03 11:35:16;;;;;;;;;10.75;5.00;;;;;11.59;94.79;100961.44;4998599;28;46097;-71
2022/01/03 11:37:45;;;;;;;;;7.00;5.00;;;;;11.57;95.30;100957.94;4998141;28;45525;-72
2022/01/03 11:40:12;;;;;;;;;9.00;6.00;;;;;11.52;97.33;100954.56;4998521;28;45243;-70
2022/01/03 11:42:38;;;;;;;;;8.50;5.50;;;;;11.38;96.39;100933.78;4998503;28;45558;-71
2022/01/03 11:45:04;;;;;;;;;7.75;5.25;;;;;11.41;97.32;100938.13;4997744;28;46162;-70
2022/01/03 11:47:31;;;;;;;;;7.00;5.00;;;;;11.37;96.06;100929.41;4998231;28;45361;-70